sensor_id;sensor_type;location;lat;lon;timestamp;pressure;altitude;pressure_sealevel;temperature;humidity
64336;BME280;50672;53.362;-6.240;2023-02-13T00:00:20;103189.59;;;7.82;74.07
64336;BME280;50672;53.362;-6.240;2023-02-13T00:02:47;103188.44;;;7.86;74.02
64336;BME280;50672;53.362;-6.240;2023-02-13T00:05:14;103187.38;;;7.89;74.31
64336;BME280;50672;53.362;-6.240;2023-02-13T00:07:41;103191.44;;;7.96;74.06
64336;BME280;50672;53.362;-6.240;2023-02-13T00:10:08;103189.31;;;8.01;74.32
64336;BME280;50672;53.362;-6.240;2023-02-13T00:12:35;103192.03;;;8.01;74.10
64336;BME280;50672;53.362;-6.240;2023-02-13T00:15:05;103199.19;;;8.02;74.16
64336;BME280;50672;53.362;-6.240;2023-02-13T00:17:32;103198.09;;;8.05;74.15
64336;BME280;50672;53.362;-6.240;2023-02-13T00:19:59;103193.56;;;8.06;74.42
64336;BME280;50672;53.362;-6.240;2023-02-13T00:22:26;103186.50;;;8.03;74.23
64336;BME280;50672;53.362;-6.240;2023-02-13T00:24:53;103189.31;;;8.01;74.51
64336;BME280;50672;53.362;-6.240;2023-02-13T00:27:19;103178.78;;;7.97;74.29
64336;BME280;50672;53.362;-6.240;2023-02-13T00:29:46;103180.09;;;7.90;74.32
64336;BME280;50672;53.362;-6.240;2023-02-13T00:32:13;103181.56;;;7.81;74.38
64336;BME280;50672;53.362;-6.240;2023-02-13T00:34:41;103183.63;;;7.77;74.56
64336;BME280;50672;53.362;-6.240;2023-02-13T00:37:09;103182.84;;;7.75;74.76
64336;BME280;50672;53.362;-6.240;2023-02-13T00:39:36;103190.22;;;7.73;74.82
64336;BME280;50672;53.362;-6.240;2023-02-13T00:42:03;103198.41;;;7.72;74.92
64336;BME280;50672;53.362;-6.240;2023-02-13T00:44:30;103190.28;;;7.72;74.96
64336;BME280;50672;53.362;-6.240;2023-02-13T00:46:57;103182.94;;;7.74;74.82
64336;BME280;50672;53.362;-6.240;2023-02-13T00:49:23;103185.75;;;7.72;74.82
64336;BME280;50672;53.362;-6.240;2023-02-13T00:51:50;103183.13;;;7.70;75.03
64336;BME280;50672;53.362;-6.240;2023-02-13T00:54:17;103184.00;;;7.71;75.13
64336;BME280;50672;53.362;-6.240;2023-02-13T00:56:44;103176.66;;;7.73;75.15
64336;BME280;50672;53.362;-6.240;2023-02-13T00:59:11;103190.09;;;7.75;75.00
64336;BME280;50672;53.362;-6.240;2023-02-13T01:01:37;103180.13;;;7.75;75.23
64336;BME280;50672;53.362;-6.240;2023-02-13T01:04:04;103186.81;;;7.69;75.37
64336;BME280;50672;53.362;-6.240;2023-02-13T01:06:31;103179.94;;;7.64;75.35
64336;BME280;50672;53.362;-6.240;2023-02-13T01:08:58;103181.78;;;7.63;75.25
64336;BME280;50672;53.362;-6.240;2023-02-13T01:11:25;103181.94;;;7.60;75.50
64336;BME280;50672;53.362;-6.240;2023-02-13T01:13:52;103186.50;;;7.60;75.61
64336;BME280;50672;53.362;-6.240;2023-02-13T01:16:18;103181.00;;;7.61;75.74
64336;BME280;50672;53.362;-6.240;2023-02-13T01:18:45;103179.13;;;7.62;75.89
64336;BME280;50672;53.362;-6.240;2023-02-13T01:21:16;103182.94;;;7.59;75.80
64336;BME280;50672;53.362;-6.240;2023-02-13T01:23:44;103177.69;;;7.56;75.94
64336;BME280;50672;53.362;-6.240;2023-02-13T01:26:16;103177.97;;;7.51;75.87
64336;BME280;50672;53.362;-6.240;2023-02-13T01:28:43;103174.69;;;7.46;75.95
64336;BME280;50672;53.362;-6.240;2023-02-13T01:31:10;103172.25;;;7.42;76.17
64336;BME280;50672;53.362;-6.240;2023-02-13T01:33:37;103167.91;;;7.39;76.37
64336;BME280;50672;53.362;-6.240;2023-02-13T01:36:09;103159.88;;;7.38;76.36
64336;BME280;50672;53.362;-6.240;2023-02-13T01:38:37;103170.91;;;7.34;76.52
64336;BME280;50672;53.362;-6.240;2023-02-13T01:41:03;103172.91;;;7.31;76.44
64336;BME280;50672;53.362;-6.240;2023-02-13T01:43:50;103164.22;;;7.26;76.59
64336;BME280;50672;53.362;-6.240;2023-02-13T01:46:23;103167.28;;;7.19;76.67
64336;BME280;50672;53.362;-6.240;2023-02-13T01:48:53;103167.69;;;7.13;77.04
64336;BME280;50672;53.362;-6.240;2023-02-13T01:51:26;103158.94;;;7.08;77.18
64336;BME280;50672;53.362;-6.240;2023-02-13T01:54:04;103167.38;;;7.04;77.13
64336;BME280;50672;53.362;-6.240;2023-02-13T01:56:39;103166.56;;;7.01;77.41
64336;BME280;50672;53.362;-6.240;2023-02-13T01:59:16;103161.25;;;7.00;77.61
64336;BME280;50672;53.362;-6.240;2023-02-13T02:01:44;103160.59;;;6.96;77.72
64336;BME280;50672;53.362;-6.240;2023-02-13T02:04:21;103164.25;;;6.95;77.79
64336;BME280;50672;53.362;-6.240;2023-02-13T02:06:56;103158.13;;;6.92;77.84
64336;BME280;50672;53.362;-6.240;2023-02-13T02:09:29;103160.06;;;6.90;77.81
64336;BME280;50672;53.362;-6.240;2023-02-13T02:12:01;103148.44;;;6.88;78.02
64336;BME280;50672;53.362;-6.240;2023-02-13T02:14:30;103156.56;;;6.88;78.15
64336;BME280;50672;53.362;-6.240;2023-02-13T02:16:57;103153.09;;;6.86;78.18
64336;BME280;50672;53.362;-6.240;2023-02-13T02:19:48;103152.13;;;6.87;78.25
64336;BME280;50672;53.362;-6.240;2023-02-13T02:44:09;103133.34;;;6.83;78.64
64336;BME280;50672;53.362;-6.240;2023-02-13T02:46:52;103136.94;;;6.84;78.70
64336;BME280;50672;53.362;-6.240;2023-02-13T02:49:43;103138.75;;;6.83;78.62
64336;BME280;50672;53.362;-6.240;2023-02-13T02:52:56;103130.63;;;6.83;78.52
64336;BME280;50672;53.362;-6.240;2023-02-13T02:58:16;103126.03;;;6.86;78.82
64336;BME280;50672;53.362;-6.240;2023-02-13T03:01:06;103126.03;;;6.86;78.57
64336;BME280;50672;53.362;-6.240;2023-02-13T03:03:55;103118.84;;;6.84;78.64
64336;BME280;50672;53.362;-6.240;2023-02-13T03:06:55;103116.34;;;6.81;78.54
64336;BME280;50672;53.362;-6.240;2023-02-13T03:09:28;103115.47;;;6.81;78.68
64336;BME280;50672;53.362;-6.240;2023-02-13T03:12:18;103115.53;;;6.79;78.81
64336;BME280;50672;53.362;-6.240;2023-02-13T03:15:06;103111.13;;;6.78;79.02
64336;BME280;50672;53.362;-6.240;2023-02-13T03:17:34;103107.53;;;6.78;78.99
64336;BME280;50672;53.362;-6.240;2023-02-13T03:23:18;103104.03;;;6.76;79.29
64336;BME280;50672;53.362;-6.240;2023-02-13T03:28:40;103091.56;;;6.73;79.53
64336;BME280;50672;53.362;-6.240;2023-02-13T03:31:40;103098.81;;;6.73;79.59
64336;BME280;50672;53.362;-6.240;2023-02-13T03:34:18;103091.47;;;6.75;79.59
64336;BME280;50672;53.362;-6.240;2023-02-13T03:43:07;103101.25;;;6.77;79.92
64336;BME280;50672;53.362;-6.240;2023-02-13T03:45:39;103100.28;;;6.78;79.95
64336;BME280;50672;53.362;-6.240;2023-02-13T03:48:29;103098.44;;;6.79;80.19
64336;BME280;50672;53.362;-6.240;2023-02-13T03:51:22;103098.44;;;6.79;80.28
64336;BME280;50672;53.362;-6.240;2023-02-13T03:53:55;103103.00;;;6.78;80.13
64336;BME280;50672;53.362;-6.240;2023-02-13T03:56:23;103093.13;;;6.77;80.24
64336;BME280;50672;53.362;-6.240;2023-02-13T03:59:19;103101.94;;;6.81;80.23
64336;BME280;50672;53.362;-6.240;2023-02-13T04:04:34;103097.19;;;6.84;80.46
64336;BME280;50672;53.362;-6.240;2023-02-13T04:07:09;103091.59;;;6.88;80.42
64336;BME280;50672;53.362;-6.240;2023-02-13T04:09:39;103084.38;;;6.88;80.63
64336;BME280;50672;53.362;-6.240;2023-02-13T04:12:18;103091.44;;;6.91;80.41
64336;BME280;50672;53.362;-6.240;2023-02-13T04:15:15;103082.22;;;6.93;80.54
64336;BME280;50672;53.362;-6.240;2023-02-13T04:17:49;103085.03;;;6.92;80.61
64336;BME280;50672;53.362;-6.240;2023-02-13T04:20:17;103077.78;;;6.92;80.62
64336;BME280;50672;53.362;-6.240;2023-02-13T04:22:45;103088.63;;;6.92;80.55
64336;BME280;50672;53.362;-6.240;2023-02-13T04:25:14;103084.81;;;6.95;80.46
64336;BME280;50672;53.362;-6.240;2023-02-13T04:27:41;103080.22;;;6.97;80.54
64336;BME280;50672;53.362;-6.240;2023-02-13T04:30:09;103079.25;;;6.98;80.56
64336;BME280;50672;53.362;-6.240;2023-02-13T04:32:35;103075.75;;;6.96;80.36
64336;BME280;50672;53.362;-6.240;2023-02-13T04:35:02;103073.13;;;6.94;80.46
64336;BME280;50672;53.362;-6.240;2023-02-13T04:37:29;103075.94;;;6.93;80.44
64336;BME280;50672;53.362;-6.240;2023-02-13T04:39:56;103075.19;;;6.91;80.23
64336;BME280;50672;53.362;-6.240;2023-02-13T04:42:23;103074.38;;;6.89;80.20
64336;BME280;50672;53.362;-6.240;2023-02-13T04:44:49;103077.00;;;6.90;80.17
64336;BME280;50672;53.362;-6.240;2023-02-13T04:47:16;103069.78;;;6.91;80.11
64336;BME280;50672;53.362;-6.240;2023-02-13T04:49:43;103079.72;;;6.90;80.25
64336;BME280;50672;53.362;-6.240;2023-02-13T04:52:10;103076.13;;;6.90;80.01
64336;BME280;50672;53.362;-6.240;2023-02-13T04:54:37;103077.88;;;6.91;80.31
64336;BME280;50672;53.362;-6.240;2023-02-13T04:57:03;103079.59;;;6.92;80.21
64336;BME280;50672;53.362;-6.240;2023-02-13T04:59:30;103078.47;;;6.96;80.21
64336;BME280;50672;53.362;-6.240;2023-02-13T05:01:57;103079.81;;;7.03;80.05
64336;BME280;50672;53.362;-6.240;2023-02-13T05:04:24;103085.06;;;7.06;79.93
64336;BME280;50672;53.362;-6.240;2023-02-13T05:06:51;103087.28;;;7.14;80.04
64336;BME280;50672;53.362;-6.240;2023-02-13T05:09:18;103100.38;;;7.22;79.98
64336;BME280;50672;53.362;-6.240;2023-02-13T05:11:45;103087.38;;;7.27;79.89
64336;BME280;50672;53.362;-6.240;2023-02-13T05:14:12;103087.00;;;7.33;79.70
64336;BME280;50672;53.362;-6.240;2023-02-13T05:16:39;103088.78;;;7.34;79.78
64336;BME280;50672;53.362;-6.240;2023-02-13T05:19:06;103087.00;;;7.33;79.73
64336;BME280;50672;53.362;-6.240;2023-02-13T05:21:32;103083.50;;;7.31;79.50
64336;BME280;50672;53.362;-6.240;2023-02-13T05:24:18;103080.34;;;7.24;79.21
64336;BME280;50672;53.362;-6.240;2023-02-13T05:26:46;103074.13;;;7.22;79.34
64336;BME280;50672;53.362;-6.240;2023-02-13T05:29:12;103073.44;;;7.18;79.23
64336;BME280;50672;53.362;-6.240;2023-02-13T05:31:46;103074.59;;;7.14;79.06
64336;BME280;50672;53.362;-6.240;2023-02-13T05:34:13;103083.81;;;7.12;78.90
64336;BME280;50672;53.362;-6.240;2023-02-13T05:36:40;103071.22;;;7.11;78.80
64336;BME280;50672;53.362;-6.240;2023-02-13T05:39:08;103082.91;;;7.11;78.93
64336;BME280;50672;53.362;-6.240;2023-02-13T05:41:35;103066.88;;;7.08;78.86
64336;BME280;50672;53.362;-6.240;2023-02-13T05:44:02;103072.47;;;7.05;78.79
64336;BME280;50672;53.362;-6.240;2023-02-13T05:46:28;103059.16;;;7.02;78.67
64336;BME280;50672;53.362;-6.240;2023-02-13T05:48:55;103073.63;;;7.01;78.46
64336;BME280;50672;53.362;-6.240;2023-02-13T05:51:22;103065.50;;;7.01;78.52
64336;BME280;50672;53.362;-6.240;2023-02-13T05:53:49;103058.25;;;7.01;78.59
64336;BME280;50672;53.362;-6.240;2023-02-13T05:56:16;103056.53;;;7.00;78.43
64336;BME280;50672;53.362;-6.240;2023-02-13T05:58:43;103050.22;;;7.00;78.43
64336;BME280;50672;53.362;-6.240;2023-02-13T06:01:11;103053.13;;;6.97;78.47
64336;BME280;50672;53.362;-6.240;2023-02-13T06:03:38;103054.00;;;6.97;78.25
64336;BME280;50672;53.362;-6.240;2023-02-13T06:06:06;103051.19;;;6.99;77.96
64336;BME280;50672;53.362;-6.240;2023-02-13T06:08:33;103056.69;;;6.97;78.08
64336;BME280;50672;53.362;-6.240;2023-02-13T06:10:59;103049.81;;;6.92;78.22
64336;BME280;50672;53.362;-6.240;2023-02-13T06:13:27;103049.94;;;6.90;78.09
64336;BME280;50672;53.362;-6.240;2023-02-13T06:15:54;103038.25;;;6.90;78.14
64336;BME280;50672;53.362;-6.240;2023-02-13T06:18:21;103040.25;;;6.86;78.17
64336;BME280;50672;53.362;-6.240;2023-02-13T06:20:48;103031.28;;;6.86;78.09
64336;BME280;50672;53.362;-6.240;2023-02-13T06:23:15;103030.38;;;6.85;78.07
64336;BME280;50672;53.362;-6.240;2023-02-13T06:25:42;103021.41;;;6.84;77.99
64336;BME280;50672;53.362;-6.240;2023-02-13T06:28:10;103026.16;;;6.81;78.18
64336;BME280;50672;53.362;-6.240;2023-02-13T06:30:37;103014.44;;;6.80;78.10
64336;BME280;50672;53.362;-6.240;2023-02-13T06:33:04;103009.97;;;6.79;78.10
64336;BME280;50672;53.362;-6.240;2023-02-13T06:35:31;103023.69;;;6.76;78.02
64336;BME280;50672;53.362;-6.240;2023-02-13T06:37:58;103015.50;;;6.78;78.28
64336;BME280;50672;53.362;-6.240;2023-02-13T06:40:24;103014.63;;;6.77;78.30
64336;BME280;50672;53.362;-6.240;2023-02-13T06:42:51;103009.22;;;6.77;78.07
64336;BME280;50672;53.362;-6.240;2023-02-13T06:45:18;103011.13;;;6.75;78.30
64336;BME280;50672;53.362;-6.240;2023-02-13T06:47:46;103012.97;;;6.75;78.18
64336;BME280;50672;53.362;-6.240;2023-02-13T06:50:15;103018.50;;;6.73;78.24
64336;BME280;50672;53.362;-6.240;2023-02-13T06:52:50;103026.50;;;6.75;77.97
64336;BME280;50672;53.362;-6.240;2023-02-13T06:55:17;103023.91;;;6.73;78.21
64336;BME280;50672;53.362;-6.240;2023-02-13T06:57:45;103025.66;;;6.74;78.00
64336;BME280;50672;53.362;-6.240;2023-02-13T07:00:14;103028.34;;;6.74;78.08
64336;BME280;50672;53.362;-6.240;2023-02-13T07:02:43;103026.59;;;6.73;78.02
64336;BME280;50672;53.362;-6.240;2023-02-13T07:05:11;103025.66;;;6.74;78.13
64336;BME280;50672;53.362;-6.240;2023-02-13T07:07:39;103023.91;;;6.73;77.96
64336;BME280;50672;53.362;-6.240;2023-02-13T07:10:09;103017.63;;;6.73;77.85
64336;BME280;50672;53.362;-6.240;2023-02-13T07:12:36;103015.88;;;6.72;77.78
64336;BME280;50672;53.362;-6.240;2023-02-13T07:15:04;103015.00;;;6.71;77.96
64336;BME280;50672;53.362;-6.240;2023-02-13T07:17:31;103022.16;;;6.72;77.79
64336;BME280;50672;53.362;-6.240;2023-02-13T07:19:59;103012.28;;;6.71;77.72
64336;BME280;50672;53.362;-6.240;2023-02-13T07:22:26;103023.03;;;6.73;77.74
64336;BME280;50672;53.362;-6.240;2023-02-13T07:24:53;103033.88;;;6.73;77.84
64336;BME280;50672;53.362;-6.240;2023-02-13T07:27:20;103031.31;;;6.70;77.72
64336;BME280;50672;53.362;-6.240;2023-02-13T07:29:46;103027.75;;;6.69;77.71
64336;BME280;50672;53.362;-6.240;2023-02-13T07:32:13;103026.00;;;6.68;77.66
64336;BME280;50672;53.362;-6.240;2023-02-13T07:34:40;103021.59;;;6.67;77.61
64336;BME280;50672;53.362;-6.240;2023-02-13T07:37:21;103025.34;;;6.64;77.68
64336;BME280;50672;53.362;-6.240;2023-02-13T07:39:48;103022.63;;;6.64;77.65
64336;BME280;50672;53.362;-6.240;2023-02-13T07:42:14;103024.66;;;6.61;77.71
64336;BME280;50672;53.362;-6.240;2023-02-13T07:44:41;103024.53;;;6.62;77.73
64336;BME280;50672;53.362;-6.240;2023-02-13T07:47:08;103036.44;;;6.60;77.58
64336;BME280;50672;53.362;-6.240;2023-02-13T07:49:35;103029.28;;;6.59;77.55
64336;BME280;50672;53.362;-6.240;2023-02-13T07:52:03;103029.41;;;6.57;77.63
64336;BME280;50672;53.362;-6.240;2023-02-13T07:54:31;103028.50;;;6.57;77.81
64336;BME280;50672;53.362;-6.240;2023-02-13T07:56:58;103031.22;;;6.57;77.79
64336;BME280;50672;53.362;-6.240;2023-02-13T07:59:25;103025.69;;;6.58;77.80
64336;BME280;50672;53.362;-6.240;2023-02-13T08:01:51;103028.22;;;6.61;77.56
64336;BME280;50672;53.362;-6.240;2023-02-13T08:04:18;103027.16;;;6.64;77.63
64336;BME280;50672;53.362;-6.240;2023-02-13T08:06:48;103029.69;;;6.67;77.93
64336;BME280;50672;53.362;-6.240;2023-02-13T08:09:19;103034.03;;;6.70;77.64
64336;BME280;50672;53.362;-6.240;2023-02-13T08:12:09;103040.25;;;6.72;77.70
64336;BME280;50672;53.362;-6.240;2023-02-13T08:14:37;103041.88;;;6.74;77.84
64336;BME280;50672;53.362;-6.240;2023-02-13T08:17:03;103039.84;;;6.78;77.80
64336;BME280;50672;53.362;-6.240;2023-02-13T08:19:30;103044.22;;;6.80;77.90
64336;BME280;50672;53.362;-6.240;2023-02-13T08:21:57;103048.66;;;6.81;77.81
64336;BME280;50672;53.362;-6.240;2023-02-13T08:24:24;103045.09;;;6.81;77.84
64336;BME280;50672;53.362;-6.240;2023-02-13T08:26:51;103052.22;;;6.82;77.75
64336;BME280;50672;53.362;-6.240;2023-02-13T08:29:18;103046.91;;;6.80;77.70
64336;BME280;50672;53.362;-6.240;2023-02-13T08:31:45;103050.41;;;6.82;77.78
64336;BME280;50672;53.362;-6.240;2023-02-13T08:34:12;103045.88;;;6.83;77.67
64336;BME280;50672;53.362;-6.240;2023-02-13T08:36:39;103046.63;;;6.85;77.84
64336;BME280;50672;53.362;-6.240;2023-02-13T08:39:08;103052.81;;;6.87;77.88
64336;BME280;50672;53.362;-6.240;2023-02-13T08:41:35;103048.09;;;6.91;77.70
64336;BME280;50672;53.362;-6.240;2023-02-13T08:44:02;103046.94;;;6.95;77.76
64336;BME280;50672;53.362;-6.240;2023-02-13T08:46:29;103059.25;;;7.00;77.90
64336;BME280;50672;53.362;-6.240;2023-02-13T08:48:55;103058.84;;;7.07;77.78
64336;BME280;50672;53.362;-6.240;2023-02-13T08:51:22;103069.28;;;7.13;77.72
64336;BME280;50672;53.362;-6.240;2023-02-13T08:53:49;103058.84;;;7.21;77.55
64336;BME280;50672;53.362;-6.240;2023-02-13T08:56:16;103060.19;;;7.28;77.55
64336;BME280;50672;53.362;-6.240;2023-02-13T08:58:43;103057.97;;;7.35;77.53
64336;BME280;50672;53.362;-6.240;2023-02-13T09:01:13;103066.59;;;7.42;77.43
64336;BME280;50672;53.362;-6.240;2023-02-13T09:03:40;103065.53;;;7.44;77.20
64336;BME280;50672;53.362;-6.240;2023-02-13T09:06:07;103068.81;;;7.49;77.04
64336;BME280;50672;53.362;-6.240;2023-02-13T09:08:34;103081.88;;;7.57;77.17
64336;BME280;50672;53.362;-6.240;2023-02-13T09:11:02;103072.69;;;7.60;77.03
64336;BME280;50672;53.362;-6.240;2023-02-13T09:13:30;103074.44;;;7.61;76.83
64336;BME280;50672;53.362;-6.240;2023-02-13T09:16:02;103072.56;;;7.61;76.46
64336;BME280;50672;53.362;-6.240;2023-02-13T09:18:32;103069.28;;;7.70;76.37
64336;BME280;50672;53.362;-6.240;2023-02-13T09:21:00;103068.38;;;7.84;76.26
64336;BME280;50672;53.362;-6.240;2023-02-13T09:23:32;103075.09;;;8.06;76.25
64336;BME280;50672;53.362;-6.240;2023-02-13T09:26:04;103072.88;;;8.26;76.16
64336;BME280;50672;53.362;-6.240;2023-02-13T09:28:32;103073.03;;;8.37;75.91
64336;BME280;50672;53.362;-6.240;2023-02-13T09:31:07;103075.84;;;8.50;75.37
64336;BME280;50672;53.362;-6.240;2023-02-13T09:33:35;103067.72;;;8.63;75.17
64336;BME280;50672;53.362;-6.240;2023-02-13T09:36:11;103061.44;;;8.75;74.81
64336;BME280;50672;53.362;-6.240;2023-02-13T09:38:42;103062.41;;;8.87;74.44
64336;BME280;50672;53.362;-6.240;2023-02-13T09:41:20;103059.81;;;8.98;73.99
64336;BME280;50672;53.362;-6.240;2023-02-13T09:46:38;103043.63;;;9.22;73.12
64336;BME280;50672;53.362;-6.240;2023-02-13T09:49:14;103048.06;;;9.36;73.10
64336;BME280;50672;53.362;-6.240;2023-02-13T09:51:43;103047.94;;;9.51;72.40
64336;BME280;50672;53.362;-6.240;2023-02-13T09:54:15;103046.34;;;9.72;72.00
64336;BME280;50672;53.362;-6.240;2023-02-13T09:59:55;103053.28;;;10.14;71.09
64336;BME280;50672;53.362;-6.240;2023-02-13T10:05:33;103060.72;;;10.36;69.49
64336;BME280;50672;53.362;-6.240;2023-02-13T10:08:17;103056.28;;;10.46;68.97
64336;BME280;50672;53.362;-6.240;2023-02-13T10:19:40;103060.38;;;10.76;67.32
64336;BME280;50672;53.362;-6.240;2023-02-13T10:24:58;103064.44;;;10.70;66.43
64336;BME280;50672;53.362;-6.240;2023-02-13T10:27:39;103058.34;;;10.67;66.62
64336;BME280;50672;53.362;-6.240;2023-02-13T10:38:33;103053.00;;;10.54;65.87
64336;BME280;50672;53.362;-6.240;2023-02-13T10:41:34;103052.34;;;10.50;65.66
64336;BME280;50672;53.362;-6.240;2023-02-13T10:44:35;103054.47;;;10.47;65.78
64336;BME280;50672;53.362;-6.240;2023-02-13T10:50:32;103048.13;;;10.46;65.64
64336;BME280;50672;53.362;-6.240;2023-02-13T10:56:04;103052.47;;;10.49;65.14
64336;BME280;50672;53.362;-6.240;2023-02-13T10:58:52;103047.38;;;10.44;65.21
64336;BME280;50672;53.362;-6.240;2023-02-13T11:01:25;103044.25;;;10.37;64.85
64336;BME280;50672;53.362;-6.240;2023-02-13T11:04:06;103044.81;;;10.30;65.05
64336;BME280;50672;53.362;-6.240;2023-02-13T11:06:35;103046.25;;;10.22;64.75
64336;BME280;50672;53.362;-6.240;2023-02-13T11:09:05;103045.13;;;10.14;65.00
64336;BME280;50672;53.362;-6.240;2023-02-13T11:14:27;103029.94;;;9.98;64.86
64336;BME280;50672;53.362;-6.240;2023-02-13T11:17:19;103034.44;;;9.86;65.02
64336;BME280;50672;53.362;-6.240;2023-02-13T11:19:55;103014.59;;;9.73;65.04
64336;BME280;50672;53.362;-6.240;2023-02-13T11:22:35;103017.56;;;9.57;65.17
64336;BME280;50672;53.362;-6.240;2023-02-13T11:25:24;103010.53;;;9.41;65.66
64336;BME280;50672;53.362;-6.240;2023-02-13T11:28:06;103015.78;;;9.32;65.69
64336;BME280;50672;53.362;-6.240;2023-02-13T11:30:35;103007.09;;;9.27;65.95
64336;BME280;50672;53.362;-6.240;2023-02-13T11:33:26;103009.28;;;9.21;66.32
64336;BME280;50672;53.362;-6.240;2023-02-13T11:36:05;103009.50;;;9.18;66.43
64336;BME280;50672;53.362;-6.240;2023-02-13T11:38:32;103010.91;;;9.24;66.86
64336;BME280;50672;53.362;-6.240;2023-02-13T11:43:46;103005.41;;;9.87;66.84
64336;BME280;50672;53.362;-6.240;2023-02-13T11:46:18;103000.44;;;10.05;66.72
64336;BME280;50672;53.362;-6.240;2023-02-13T11:51:44;102996.53;;;10.20;66.60
64336;BME280;50672;53.362;-6.240;2023-02-13T11:56:59;102993.88;;;10.07;66.71
64336;BME280;50672;53.362;-6.240;2023-02-13T11:59:37;102987.28;;;9.99;66.67
64336;BME280;50672;53.362;-6.240;2023-02-13T12:02:17;102985.56;;;9.98;66.58
64336;BME280;50672;53.362;-6.240;2023-02-13T12:04:45;102984.66;;;9.97;66.77
64336;BME280;50672;53.362;-6.240;2023-02-13T12:07:17;102981.81;;;9.99;66.59
64336;BME280;50672;53.362;-6.240;2023-02-13T12:09:48;102988.31;;;10.09;66.39
64336;BME280;50672;53.362;-6.240;2023-02-13T12:12:50;102977.50;;;10.32;66.71
64336;BME280;50672;53.362;-6.240;2023-02-13T12:15:33;102977.03;;;10.73;66.47
64336;BME280;50672;53.362;-6.240;2023-02-13T12:18:18;102965.75;;;11.12;65.76
64336;BME280;50672;53.362;-6.240;2023-02-13T12:32:01;102959.06;;;11.39;64.54
64336;BME280;50672;53.362;-6.240;2023-02-13T12:34:48;102959.28;;;11.36;63.93
64336;BME280;50672;53.362;-6.240;2023-02-13T12:46:08;102965.72;;;11.46;63.22
64336;BME280;50672;53.362;-6.240;2023-02-13T12:48:50;102952.69;;;11.61;63.22
64336;BME280;50672;53.362;-6.240;2023-02-13T12:54:39;102945.28;;;11.84;62.78
64336;BME280;50672;53.362;-6.240;2023-02-13T12:57:08;102927.41;;;12.24;62.27
64336;BME280;50672;53.362;-6.240;2023-02-13T13:00:21;102939.72;;;12.18;62.21
64336;BME280;50672;53.362;-6.240;2023-02-13T13:06:07;102921.91;;;11.91;61.37
64336;BME280;50672;53.362;-6.240;2023-02-13T13:09:23;102925.78;;;11.89;61.20
64336;BME280;50672;53.362;-6.240;2023-02-13T13:22:34;102900.06;;;12.45;60.19
64336;BME280;50672;53.362;-6.240;2023-02-13T13:25:35;102897.53;;;12.53;60.08
64336;BME280;50672;53.362;-6.240;2023-02-13T13:28:33;102897.59;;;13.04;59.91
64336;BME280;50672;53.362;-6.240;2023-02-13T13:31:02;102895.88;;;13.73;59.75
64336;BME280;50672;53.362;-6.240;2023-02-13T13:33:29;102890.66;;;13.99;59.02
64336;BME280;50672;53.362;-6.240;2023-02-13T13:36:26;102887.25;;;13.77;58.55
64336;BME280;50672;53.362;-6.240;2023-02-13T13:44:38;102869.25;;;13.05;58.10
64336;BME280;50672;53.362;-6.240;2023-02-13T13:49:57;102869.13;;;12.75;58.17
64336;BME280;50672;53.362;-6.240;2023-02-13T13:52:33;102865.97;;;12.70;58.04
64336;BME280;50672;53.362;-6.240;2023-02-13T13:58:46;102867.22;;;12.97;58.01
64336;BME280;50672;53.362;-6.240;2023-02-13T14:01:30;102862.63;;;13.07;58.30
64336;BME280;50672;53.362;-6.240;2023-02-13T14:04:03;102856.91;;;13.20;57.88
64336;BME280;50672;53.362;-6.240;2023-02-13T14:09:06;102858.88;;;13.08;57.87
64336;BME280;50672;53.362;-6.240;2023-02-13T14:11:46;102851.13;;;13.04;57.59
64336;BME280;50672;53.362;-6.240;2023-02-13T14:16:58;102846.78;;;12.91;57.93
64336;BME280;50672;53.362;-6.240;2023-02-13T14:19:44;102837.53;;;12.82;57.92
64336;BME280;50672;53.362;-6.240;2023-02-13T14:24:51;102841.06;;;12.63;57.80
64336;BME280;50672;53.362;-6.240;2023-02-13T14:27:31;102820.47;;;12.59;57.63
64336;BME280;50672;53.362;-6.240;2023-02-13T14:29:59;102832.22;;;12.50;58.02
64336;BME280;50672;53.362;-6.240;2023-02-13T14:32:37;102827.00;;;12.37;57.48
64336;BME280;50672;53.362;-6.240;2023-02-13T14:35:21;102831.59;;;12.37;57.81
64336;BME280;50672;53.362;-6.240;2023-02-13T14:37:57;102819.78;;;12.36;57.81
64336;BME280;50672;53.362;-6.240;2023-02-13T14:40:47;102827.69;;;12.29;57.40
64336;BME280;50672;53.362;-6.240;2023-02-13T14:43:32;102819.63;;;12.28;57.52
64336;BME280;50672;53.362;-6.240;2023-02-13T14:46:31;102820.91;;;12.24;57.77
64336;BME280;50672;53.362;-6.240;2023-02-13T14:49:28;102823.63;;;12.24;57.24
64336;BME280;50672;53.362;-6.240;2023-02-13T14:51:58;102816.31;;;12.24;57.66
64336;BME280;50672;53.362;-6.240;2023-02-13T14:54:37;102821.00;;;12.22;57.38
64336;BME280;50672;53.362;-6.240;2023-02-13T14:57:11;102816.72;;;12.20;57.26
64336;BME280;50672;53.362;-6.240;2023-02-13T14:59:46;102815.41;;;12.14;57.22
64336;BME280;50672;53.362;-6.240;2023-02-13T15:04:47;102812.34;;;12.07;57.32
64336;BME280;50672;53.362;-6.240;2023-02-13T15:07:20;102802.81;;;12.02;57.50
64336;BME280;50672;53.362;-6.240;2023-02-13T15:09:51;102802.50;;;11.95;57.50
64336;BME280;50672;53.362;-6.240;2023-02-13T15:12:31;102802.13;;;11.88;57.76
64336;BME280;50672;53.362;-6.240;2023-02-13T15:14:59;102800.06;;;11.80;57.38
64336;BME280;50672;53.362;-6.240;2023-02-13T15:17:33;102798.75;;;11.75;57.66
64336;BME280;50672;53.362;-6.240;2023-02-13T15:22:38;102789.59;;;11.65;58.11
64336;BME280;50672;53.362;-6.240;2023-02-13T15:25:07;102786.88;;;11.65;57.84
64336;BME280;50672;53.362;-6.240;2023-02-13T15:27:40;102788.88;;;11.62;58.28
64336;BME280;50672;53.362;-6.240;2023-02-13T15:32:44;102792.66;;;11.50;58.40
64336;BME280;50672;53.362;-6.240;2023-02-13T15:35:29;102791.47;;;11.43;58.30
64336;BME280;50672;53.362;-6.240;2023-02-13T15:37:56;102798.16;;;11.39;58.38
64336;BME280;50672;53.362;-6.240;2023-02-13T15:40:29;102805.59;;;11.37;58.82
64336;BME280;50672;53.362;-6.240;2023-02-13T15:42:58;102797.69;;;11.34;58.51
64336;BME280;50672;53.362;-6.240;2023-02-13T15:45:27;102797.81;;;11.32;58.64